You are not logged in, Click here to log in
函館空港HKD / RJCH 日本北海道函館市
ICAO: RJCH Country: 日本北海道函館市
Latitude: 41.7756 Longitude: 140.815
Total Arrivals: 16 Total Departures: 14
Latest Arrival: EH499 (RJGG-RJCH)鈺友. 陳 Latest Departure: 4MEH85 (RJCH-RJAA)鈺友. 陳
Scenery:
METAR : RJCH 080337Z 27017KT 1500 R12/1500VP2000U -SHSN FEW002 BKN010 BKN020 M03/M04 Q1019 RMK 2ST002 5ST010 7CU020 A3011

函館空港HKD